Time;durP1;ratioP1;P1;durP2;ratioP2;P2;SDS_P1;SDS_P2;PMS_P1;PMS_P2;Temp;Humidity;BMP_temperature;BMP_pressure;BME280_temperature;BME280_humidity;BME280_pressure;Samples;Min_cycle;Max_cycle;Signal;HPM_P1;HPM_P2
2024/04/07 00:01:24;;;;;;;9.15;2.38;;;;;;;17.72;48.52;100639.84;5039590;28;20393;-54
2024/04/07 00:03:50;;;;;;;11.02;2.50;;;;;;;17.70;48.88;100625.69;5041599;28;20497;-51
2024/04/07 00:06:15;;;;;;;8.82;3.17;;;;;;;17.67;48.75;100631.44;5023173;28;20515;-51
2024/04/07 00:08:41;;;;;;;14.20;3.20;;;;;;;17.67;48.80;100642.22;5019192;28;20213;-49
2024/04/07 00:11:07;;;;;;;7.80;2.80;;;;;;;17.64;48.87;100634.53;5023531;28;20060;-52
2024/04/07 00:13:33;;;;;;;12.52;3.13;;;;;;;17.72;48.98;100637.94;5038206;28;20045;-46
2024/04/07 00:16:00;;;;;;;9.65;2.78;;;;;;;17.77;48.55;100629.34;5019476;28;20638;-54
2024/04/07 00:18:25;;;;;;;6.03;2.58;;;;;;;17.74;48.72;100624.31;5020000;28;20504;-50
2024/04/07 00:21:02;;;;;;;8.35;2.53;;;;;;;17.75;48.78;100631.38;5041422;28;20047;-55
2024/04/07 00:23:28;;;;;;;6.97;2.33;;;;;;;17.67;49.72;100629.59;5029185;28;20044;-50
2024/04/07 00:25:54;;;;;;;6.28;1.88;;;;;;;17.71;48.93;100635.47;5031909;28;20057;-53
2024/04/07 00:28:20;;;;;;;11.15;2.50;;;;;;;17.81;48.58;100618.00;5029917;28;20061;-54
2024/04/07 00:30:48;;;;;;;12.77;2.58;;;;;;;17.83;48.79;100624.03;5041579;28;20044;-48
2024/04/07 00:33:14;;;;;;;8.95;2.42;;;;;;;17.84;48.50;100641.91;5041910;28;20049;-53
2024/04/07 00:35:40;;;;;;;4.80;1.85;;;;;;;17.97;47.59;100622.34;5039507;28;20484;-49
2024/04/07 00:38:06;;;;;;;8.38;2.20;;;;;;;17.96;47.45;100653.03;5028319;28;20129;-47
2024/04/07 00:40:32;;;;;;;6.28;2.10;;;;;;;17.85;47.88;100672.38;5038109;28;20056;-47
2024/04/07 00:42:57;;;;;;;8.35;1.98;;;;;;;17.96;48.19;100674.59;5039343;28;20051;-51
2024/04/07 00:45:23;;;;;;;5.20;1.92;;;;;;;18.04;47.99;100679.06;5042996;28;20159;-54
2024/04/07 00:47:49;;;;;;;10.40;2.08;;;;;;;17.87;48.16;100685.66;5036142;28;20045;-53
2024/04/07 00:50:15;;;;;;;7.57;2.20;;;;;;;18.05;47.66;100689.66;5046191;28;20053;-52
2024/04/07 00:52:42;;;;;;;7.40;2.08;;;;;;;18.02;48.15;100694.56;5042190;28;20049;-47
2024/04/07 00:55:08;;;;;;;5.53;1.92;;;;;;;18.09;47.66;100676.63;5044008;28;20045;-52
2024/04/07 00:57:34;;;;;;;8.23;2.10;;;;;;;18.18;46.74;100651.22;5044058;28;20148;-50
2024/04/07 01:00:02;;;;;;;7.93;1.88;;;;;;;18.08;47.96;100666.84;5035173;28;20060;-49
2024/04/07 01:02:29;;;;;;;6.68;1.83;;;;;;;17.48;49.47;100670.56;5042528;28;20045;-53
2024/04/07 01:04:55;;;;;;;5.97;2.10;;;;;;;18.05;47.86;100678.88;5045173;28;20041;-49
2024/04/07 01:07:21;;;;;;;5.93;1.75;;;;;;;17.63;48.85;100687.59;5030855;28;20045;-53
2024/04/07 01:09:47;;;;;;;8.65;2.40;;;;;;;17.83;48.58;100704.06;5042381;28;20044;-54
2024/04/07 01:12:13;;;;;;;10.25;1.88;;;;;;;17.73;48.51;100707.03;5025480;28;20052;-56
2024/04/07 01:14:39;;;;;;;12.43;1.83;;;;;;;17.86;48.46;100702.88;5034416;28;20511;-50
2024/04/07 01:17:07;;;;;;;10.82;2.17;;;;;;;18.17;47.41;100717.81;5043497;28;20049;-50
2024/04/07 01:19:33;;;;;;;10.60;2.17;;;;;;;18.16;48.11;100726.09;5035537;28;20064;-53
2024/04/07 01:21:59;;;;;;;9.32;2.00;;;;;;;18.05;48.22;100726.56;5036627;28;20053;-50
2024/04/07 01:24:26;;;;;;;11.38;2.25;;;;;;;17.90;48.48;100739.22;5042988;28;20049;-51
2024/04/07 01:26:52;;;;;;;8.52;2.42;;;;;;;17.86;48.42;100763.00;5017677;28;20500;-52
2024/04/07 01:29:17;;;;;;;7.43;1.95;;;;;;;17.54;50.19;100774.91;5039459;28;20056;-52
2024/04/07 01:31:44;;;;;;;8.60;1.90;;;;;;;18.04;49.44;100771.56;5040310;28;20045;-52
2024/04/07 01:34:10;;;;;;;7.82;2.03;;;;;;;17.75;50.72;100793.09;5045116;28;20064;-51
2024/04/07 01:36:37;;;;;;;7.18;2.40;;;;;;;17.94;50.10;100787.16;5040589;28;20061;-51
2024/04/07 01:39:07;;;;;;;8.45;2.25;;;;;;;17.93;50.31;100784.69;5044593;28;20047;-50
2024/04/07 01:41:34;;;;;;;8.00;2.88;;;;;;;17.59;51.97;100787.81;5034976;28;20049;-50
2024/04/07 01:44:00;;;;;;;12.90;2.85;;;;;;;17.69;52.56;100778.47;5025255;28;20048;-45
2024/04/07 01:46:25;;;;;;;7.78;2.92;;;;;;;17.39;53.97;100772.16;5041652;28;20416;-54
2024/04/07 01:48:51;;;;;;;10.63;1.98;;;;;;;17.48;53.38;100782.88;5045037;28;20080;-52
2024/04/07 01:51:17;;;;;;;4.60;1.50;;;;;;;16.84;55.42;100785.81;5041246;28;20519;-51
2024/04/07 01:53:42;;;;;;;3.67;1.63;;;;;;;16.69;57.01;100784.91;5024942;28;20045;-51
2024/04/07 01:56:09;;;;;;;6.45;2.20;;;;;;;16.97;56.19;100785.28;5043577;28;20136;-52
2024/04/07 01:58:37;;;;;;;10.75;2.00;;;;;;;16.21;59.13;100784.09;5042704;28;20055;-51
2024/04/07 02:01:04;;;;;;;10.32;2.08;;;;;;;16.74;57.75;100785.22;5038600;28;20049;-52
2024/04/07 02:03:29;;;;;;;11.13;2.45;;;;;;;16.99;57.34;100783.22;5038435;28;20045;-50
2024/04/07 02:05:55;;;;;;;6.65;1.65;;;;;;;16.72;59.42;100783.69;5038148;28;20174;-52
2024/04/07 02:08:21;;;;;;;7.63;1.58;;;;;;;17.01;58.27;100800.91;5039362;28;20045;-54
2024/04/07 02:10:51;;;;;;;6.30;1.58;;;;;;;16.62;60.94;100795.53;5040814;28;20049;-53
2024/04/07 02:13:17;;;;;;;10.02;1.90;;;;;;;16.85;59.50;100795.56;5015586;28;20052;-52
2024/04/07 02:15:43;;;;;;;6.13;1.85;;;;;;;15.64;63.96;100794.09;5015874;28;20105;-54
2024/04/07 02:18:10;;;;;;;3.33;1.45;;;;;;;16.35;62.34;100801.38;5036376;28;20041;-51
2024/04/07 02:20:36;;;;;;;4.55;1.58;;;;;;;15.92;64.06;100808.00;5024910;28;20045;-49
2024/04/07 02:23:04;;;;;;;4.68;1.40;;;;;;;15.64;65.06;100810.22;5029942;28;20061;-51
2024/04/07 02:25:29;;;;;;;5.22;1.45;;;;;;;16.20;63.71;100814.69;4995448;28;20045;-53
2024/04/07 02:27:55;;;;;;;5.72;1.30;;;;;;;15.89;64.71;100837.88;5030704;28;20129;-48
2024/04/07 02:30:21;;;;;;;6.22;1.85;;;;;;;15.64;66.13;100849.66;5022268;28;20057;-55
2024/04/07 02:32:47;;;;;;;7.25;1.67;;;;;;;15.56;66.80;100847.81;5006599;28;20056;-52
2024/04/07 02:35:14;;;;;;;8.95;1.85;;;;;;;15.64;66.32;100836.22;5044091;28;20053;-50
2024/04/07 02:37:40;;;;;;;9.15;1.40;;;;;;;15.37;66.80;100858.88;5042131;28;20045;-47
2024/04/07 02:40:09;;;;;;;5.07;1.83;;;;;;;15.17;68.06;100868.19;5023059;28;20068;-52
2024/04/07 02:42:35;;;;;;;5.82;1.20;;;;;;;15.07;69.15;100884.44;5042842;28;20056;-53
2024/04/07 02:50:34;;;;;;;7.80;1.58;;;;;;;15.22;67.83;100884.66;5041919;28;20062;-52
2024/04/07 02:53:00;;;;;;;5.97;1.70;;;;;;;15.32;67.55;100883.53;5044181;28;20081;-49
2024/04/07 02:55:25;;;;;;;4.25;1.27;;;;;;;14.77;69.26;100877.81;5041802;28;20056;-51
2024/04/07 02:57:51;;;;;;;7.70;1.40;;;;;;;15.17;68.28;100884.31;5043735;28;20052;-54
2024/04/07 03:00:20;;;;;;;4.93;1.30;;;;;;;15.35;67.37;100877.00;5024293;28;20049;-52
2024/04/07 03:02:46;;;;;;;5.47;1.10;;;;;;;15.38;66.25;100879.34;5026171;28;20048;-52
2024/04/07 03:05:13;;;;;;;4.57;1.10;;;;;;;15.42;65.46;100881.53;5043204;28;20519;-50
2024/04/07 03:07:39;;;;;;;3.63;1.20;;;;;;;15.32;65.68;100894.25;5041621;28;20049;-53
2024/04/07 03:10:09;;;;;;;4.90;1.38;;;;;;;15.56;64.34;100898.00;5025329;28;20051;-53
2024/04/07 03:12:34;;;;;;;5.15;1.42;;;;;;;15.37;64.33;100908.06;5037847;28;20045;-51
2024/04/07 03:15:03;;;;;;;2.50;0.90;;;;;;;15.44;64.12;100901.03;5031368;28;20045;-52
2024/04/07 03:17:30;;;;;;;4.03;1.35;;;;;;;15.27;64.19;100898.41;5030242;28;20041;-52
2024/04/07 03:19:56;;;;;;;6.82;1.20;;;;;;;15.53;63.47;100896.50;5043350;28;20492;-46
2024/04/07 03:22:23;;;;;;;3.65;1.00;;;;;;;14.97;65.39;100894.50;5041595;28;20049;-54
2024/04/07 03:24:49;;;;;;;3.75;1.10;;;;;;;15.70;62.58;100894.66;5024163;28;20060;-52
2024/04/07 03:27:14;;;;;;;3.28;0.70;;;;;;;15.81;61.02;100873.66;5043193;28;20061;-55
2024/04/07 03:29:41;;;;;;;3.67;0.90;;;;;;;15.17;63.98;100876.25;5040635;28;20073;-48
2024/04/07 03:32:07;;;;;;;4.75;1.30;;;;;;;15.60;63.56;100857.22;5042541;28;20052;-55
2024/04/07 03:34:32;;;;;;;6.00;1.15;;;;;;;15.47;64.67;100862.25;5041748;28;20053;-57
2024/04/07 03:36:59;;;;;;;2.72;0.98;;;;;;;15.20;65.71;100866.03;5043152;28;20128;-50
2024/04/07 03:39:25;;;;;;;2.17;0.68;;;;;;;15.55;64.63;100862.25;5016303;28;20431;-54
2024/04/07 03:41:51;;;;;;;6.15;1.00;;;;;;;15.13;65.90;100844.38;5025807;28;20053;-48
2024/04/07 03:44:18;;;;;;;3.90;1.08;;;;;;;15.62;64.45;100833.72;5043140;28;20056;-47
2024/04/07 03:46:46;;;;;;;5.40;1.27;;;;;;;15.67;65.66;100831.38;5036607;28;21674;-47
2024/04/07 03:49:12;;;;;;;6.32;1.25;;;;;;;15.64;64.97;100823.63;5038737;28;20048;-51
2024/04/07 03:51:38;;;;;;;2.85;0.88;;;;;;;15.51;65.23;100820.63;5029664;28;20073;-51
2024/04/07 03:54:04;;;;;;;5.78;1.13;;;;;;;15.79;65.29;100813.06;5013342;28;20092;-55
2024/04/07 03:56:30;;;;;;;3.40;0.90;;;;;;;15.70;65.57;100865.09;5021736;28;20424;-51
2024/04/07 03:58:56;;;;;;;8.80;1.02;;;;;;;15.77;65.34;100901.88;5023823;28;20125;-51
2024/04/07 04:01:22;;;;;;;7.38;1.25;;;;;;;15.58;65.88;100918.34;5010661;28;20486;-54
2024/04/07 04:03:48;;;;;;;5.35;1.25;;;;;;;15.63;66.23;100926.72;5008688;28;20115;-54
2024/04/07 04:06:15;;;;;;;7.20;1.30;;;;;;;15.33;68.31;100903.19;5009424;28;20079;-49
2024/04/07 04:08:40;;;;;;;6.82;1.27;;;;;;;15.45;68.80;100883.91;5009938;28;20060;-50
2024/04/07 04:11:07;;;;;;;3.35;1.33;;;;;;;15.63;68.22;100899.88;5007989;28;20042;-51
2024/04/07 04:13:35;;;;;;;6.30;1.35;;;;;;;15.26;69.96;100896.75;5012686;28;20057;-51
2024/04/07 04:16:01;;;;;;;5.90;1.33;;;;;;;15.59;68.46;100901.22;5011159;28;20041;-49
2024/04/07 04:18:27;;;;;;;6.95;1.33;;;;;;;15.53;68.59;100915.31;5014965;28;20049;-53
2024/04/07 04:20:53;;;;;;;4.47;1.25;;;;;;;15.46;69.81;100915.13;5029309;28;20144;-52
2024/04/07 04:23:19;;;;;;;4.90;1.85;;;;;;;15.28;70.58;100929.63;5013396;28;20061;-52
2024/04/07 04:25:52;;;;;;;4.57;1.20;;;;;;;15.17;70.88;100946.06;5012532;28;20050;-54
2024/04/07 04:28:19;;;;;;;7.10;1.48;;;;;;;15.35;69.98;100941.44;5009708;28;20045;-49
2024/04/07 04:30:59;;;;;;;4.50;1.55;;;;;;;15.42;70.40;100939.78;5009812;28;20050;-51
2024/04/07 04:33:29;;;;;;;6.53;1.30;;;;;;;15.26;71.16;100945.09;5033433;28;20051;-53
2024/04/07 04:35:55;;;;;;;3.95;1.10;;;;;;;15.49;70.41;100952.38;5038090;28;20052;-47
2024/04/07 04:38:22;;;;;;;5.68;1.73;;;;;;;14.97;72.98;100951.69;5023330;28;20051;-53
2024/04/07 04:40:54;;;;;;;4.00;1.25;;;;;;;14.57;73.94;100970.25;5044413;28;20079;-53
2024/04/07 04:43:21;;;;;;;8.48;1.50;;;;;;;14.77;73.64;100952.94;5044239;28;20057;-51
2024/04/07 04:46:03;;;;;;;7.20;1.83;;;;;;;14.90;72.96;100942.59;5044570;28;20059;-54
2024/04/07 04:48:31;;;;;;;6.82;2.10;;;;;;;14.93;73.17;100928.84;5035965;28;20053;-54
2024/04/07 04:50:57;;;;;;;3.67;0.98;;;;;;;14.66;73.29;100895.00;5037346;28;20051;-52
2024/04/07 04:53:22;;;;;;;5.22;1.20;;;;;;;14.93;72.42;100909.22;5035875;28;20053;-51
2024/04/07 04:55:48;;;;;;;5.53;1.42;;;;;;;14.64;73.88;100925.69;5040893;28;20068;-51
2024/04/07 04:58:14;;;;;;;3.90;1.00;;;;;;;14.51;75.12;100928.81;5040292;28;20059;-47
2024/04/07 05:00:40;;;;;;;2.60;0.90;;;;;;;14.33;75.68;100926.13;5021812;28;20475;-53
2024/04/07 05:03:06;;;;;;;3.40;1.00;;;;;;;14.56;73.06;100912.25;5015343;28;20053;-52
2024/04/07 05:05:31;;;;;;;4.65;1.15;;;;;;;14.83;71.88;100914.72;5037059;28;20148;-48
2024/04/07 05:07:57;;;;;;;4.32;1.00;;;;;;;14.88;72.49;100923.13;5031245;28;20140;-51
2024/04/07 05:10:23;;;;;;;3.60;0.90;;;;;;;14.58;72.55;100934.38;5023784;28;20045;-51
2024/04/07 05:12:49;;;;;;;2.65;0.90;;;;;;;14.60;72.71;100937.72;5045127;28;20048;-52
2024/04/07 05:15:15;;;;;;;3.17;0.80;;;;;;;14.75;71.66;100930.78;5027055;28;20634;-48
2024/04/07 05:17:41;;;;;;;4.45;0.90;;;;;;;14.85;71.59;100942.25;5043356;28;20045;-50
2024/04/07 05:20:07;;;;;;;1.65;0.73;;;;;;;15.00;70.34;100945.97;5045257;28;20041;-50
2024/04/07 05:22:35;;;;;;;4.03;0.80;;;;;;;14.76;70.78;100935.16;5043028;28;20059;-49
2024/04/07 05:25:01;;;;;;;3.78;0.73;;;;;;;14.34;70.67;100949.28;5043189;28;20051;-49
2024/04/07 05:27:27;;;;;;;2.53;0.60;;;;;;;14.38;71.63;100948.97;5043132;28;20132;-49
2024/04/07 05:29:53;;;;;;;3.67;0.65;;;;;;;14.82;69.88;100947.06;5045295;28;20103;-48
2024/04/07 05:32:18;;;;;;;1.60;0.73;;;;;;;14.47;70.84;100961.44;5042936;28;20055;-52
2024/04/07 05:34:48;;;;;;;2.05;0.63;;;;;;;14.57;70.51;100959.53;5044811;28;20470;-52
2024/04/07 05:37:14;;;;;;;2.65;0.80;;;;;;;14.21;70.63;100959.56;5043943;28;20055;-53
2024/04/07 05:39:47;;;;;;;5.43;0.70;;;;;;;14.23;70.02;100962.94;5043956;28;20586;-51
2024/04/07 05:42:13;;;;;;;2.47;0.70;;;;;;;14.19;70.33;100969.59;5044040;28;20063;-52
2024/04/07 05:44:39;;;;;;;5.10;0.90;;;;;;;14.35;70.13;100976.94;5042773;28;20045;-48
2024/04/07 05:47:05;;;;;;;2.63;0.55;;;;;;;14.30;69.50;100972.03;5009807;28;20056;-53
2024/04/07 05:49:34;;;;;;;3.10;0.85;;;;;;;14.62;68.57;100982.19;5042191;28;20049;-52
2024/04/07 05:52:00;;;;;;;2.88;0.90;;;;;;;14.27;69.49;100980.38;5044838;28;20265;-51
2024/04/07 05:54:29;;;;;;;2.22;0.45;;;;;;;14.79;67.22;100985.78;5041370;28;20516;-51
2024/04/07 05:56:55;;;;;;;2.42;0.60;;;;;;;14.49;68.04;100994.31;5059237;28;20142;-50
2024/04/07 05:59:21;;;;;;;2.63;1.23;;;;;;;14.58;68.09;100996.06;5034631;28;20044;-55
2024/04/07 06:01:46;;;;;;;2.17;0.50;;;;;;;14.84;66.55;100999.59;5026795;28;20098;-51
2024/04/07 06:04:12;;;;;;;2.03;0.50;;;;;;;14.43;68.22;101003.81;5044655;28;20103;-52
2024/04/07 06:06:38;;;;;;;2.72;0.90;;;;;;;15.13;66.40;101004.56;5042730;28;20139;-52
2024/04/07 06:09:04;;;;;;;2.03;0.50;;;;;;;14.77;67.18;101013.78;5044770;28;20051;-50
2024/04/07 06:11:30;;;;;;;1.80;0.70;;;;;;;14.93;66.13;101012.03;5040762;28;20313;-53
2024/04/07 06:13:56;;;;;;;0.73;0.40;;;;;;;14.83;66.51;101010.47;5044035;28;20053;-52
2024/04/07 06:16:21;;;;;;;2.58;0.52;;;;;;;14.69;66.94;101010.06;5012824;28;20053;-53
2024/04/07 06:18:47;;;;;;;1.38;0.65;;;;;;;15.08;65.37;101006.91;5026109;28;20048;-51
2024/04/07 06:21:13;;;;;;;4.22;0.80;;;;;;;15.07;65.39;101011.44;5013863;28;20140;-50
2024/04/07 06:23:42;;;;;;;4.03;0.70;;;;;;;14.44;68.53;101028.78;5038297;28;20396;-50
2024/04/07 06:26:08;;;;;;;4.18;0.88;;;;;;;15.17;65.60;101031.97;5038322;28;20041;-52
2024/04/07 06:28:34;;;;;;;0.95;0.40;;;;;;;15.06;66.11;101035.78;5042408;28;20056;-51
2024/04/07 06:31:01;;;;;;;2.78;0.68;;;;;;;15.03;66.29;101036.06;5025699;28;20045;-53
2024/04/07 06:33:27;;;;;;;2.42;0.60;;;;;;;15.03;65.64;101031.56;5028448;28;20045;-54
2024/04/07 06:35:53;;;;;;;3.30;0.85;;;;;;;15.01;66.57;101035.38;5034381;28;20083;-55
2024/04/07 06:38:19;;;;;;;4.30;0.77;;;;;;;15.08;65.84;101036.44;5040958;28;20048;-54
2024/04/07 06:40:45;;;;;;;6.32;0.95;;;;;;;14.85;66.72;101046.03;5042698;28;20055;-51
2024/04/07 06:43:11;;;;;;;2.35;0.63;;;;;;;15.08;64.93;101047.16;5039780;28;20617;-48
2024/04/07 06:45:37;;;;;;;2.58;0.80;;;;;;;14.85;66.35;101038.00;5022713;28;20046;-54
2024/04/07 06:48:04;;;;;;;3.60;0.70;;;;;;;15.18;65.06;101050.59;5036049;28;20648;-46
2024/04/07 06:50:32;;;;;;;5.97;0.50;;;;;;;15.13;65.32;101055.56;5038601;28;20044;-52
2024/04/07 06:52:57;;;;;;;3.50;0.90;;;;;;;14.99;66.00;101053.50;5055686;28;20044;-46
2024/04/07 06:55:23;;;;;;;4.68;1.30;;;;;;;15.11;66.03;101063.81;5036172;28;20507;-52
2024/04/07 06:57:49;;;;;;;3.58;0.68;;;;;;;15.48;64.89;101057.28;5036900;28;20432;-50
2024/04/07 07:00:15;;;;;;;2.25;0.60;;;;;;;15.47;64.44;101055.63;5042207;28;20053;-48
2024/04/07 07:02:41;;;;;;;4.55;0.68;;;;;;;15.78;63.11;101059.44;5033316;28;20049;-47
2024/04/07 07:05:08;;;;;;;2.58;1.55;;;;;;;15.57;63.96;101048.28;5038324;28;20056;-50
2024/04/07 07:07:35;;;;;;;4.28;0.80;;;;;;;15.93;63.26;101053.41;5038834;28;20051;-54
2024/04/07 07:10:01;;;;;;;7.25;1.15;;;;;;;16.00;62.90;101054.44;5038535;28;20052;-50
2024/04/07 07:12:27;;;;;;;2.75;0.80;;;;;;;15.82;63.08;101055.41;5037090;28;20055;-51
2024/04/07 07:14:52;;;;;;;2.97;0.70;;;;;;;15.60;63.54;101065.94;5040663;28;20350;-49
2024/04/07 07:17:18;;;;;;;0.85;0.40;;;;;;;15.95;63.02;101064.84;5040924;28;20567;-48
2024/04/07 07:19:44;;;;;;;2.97;0.85;;;;;;;16.25;61.78;101062.41;5043296;28;20057;-51
2024/04/07 07:22:10;;;;;;;2.92;0.60;;;;;;;15.36;63.84;101072.88;5041472;28;20492;-50
2024/04/07 07:24:36;;;;;;;4.30;0.80;;;;;;;15.76;63.62;101074.03;5014315;28;20045;-52
2024/04/07 07:27:01;;;;;;;1.70;0.40;;;;;;;15.76;63.31;101082.94;5022631;28;20056;-50
2024/04/07 07:29:27;;;;;;;3.63;0.77;;;;;;;15.94;62.89;101079.28;5020953;28;20060;-46
2024/04/07 07:31:56;;;;;;;3.10;0.70;;;;;;;15.54;64.38;101075.44;5015611;28;20060;-53
2024/04/07 07:34:26;;;;;;;4.60;1.63;;;;;;;15.77;64.15;101078.41;5014427;28;20049;-50
2024/04/07 07:36:52;;;;;;;1.52;0.70;;;;;;;15.76;63.29;101074.88;5012666;28;20418;-48
2024/04/07 07:39:18;;;;;;;3.63;0.52;;;;;;;16.23;61.32;101087.75;4979594;28;20050;-52
2024/04/07 07:41:44;;;;;;;2.13;1.00;;;;;;;16.12;62.17;101071.94;5014804;28;20543;-51
2024/04/07 07:44:11;;;;;;;4.00;0.88;;;;;;;16.14;61.36;101075.31;5010836;28;20054;-54
2024/04/07 07:46:37;;;;;;;7.65;1.20;;;;;;;16.45;60.44;101084.44;5020102;28;20052;-52
2024/04/07 07:49:06;;;;;;;1.83;0.80;;;;;;;15.91;61.75;101085.81;5036791;28;20401;-53
2024/04/07 07:51:32;;;;;;;3.65;1.13;;;;;;;15.34;63.62;101098.19;5001783;28;20394;-54
2024/04/07 07:53:58;;;;;;;5.43;1.05;;;;;;;15.24;63.33;101111.72;5020616;28;20042;-48
2024/04/07 07:56:24;;;;;;;7.15;1.13;;;;;;;15.87;62.13;101112.22;5024045;28;20218;-53
2024/04/07 07:58:50;;;;;;;3.08;0.90;;;;;;;16.11;61.04;101107.88;5025291;28;20057;-51
2024/04/07 08:01:16;;;;;;;3.08;1.40;;;;;;;16.54;59.93;101121.09;5025009;28;20045;-51
2024/04/07 08:03:42;;;;;;;10.45;2.08;;;;;;;16.22;61.40;101111.13;5019901;28;20049;-53
2024/04/07 08:06:08;;;;;;;4.05;1.30;;;;;;;15.96;61.34;101112.22;5020949;28;20045;-52
2024/04/07 08:08:33;;;;;;;4.00;1.20;;;;;;;16.44;60.55;101114.19;5008715;28;20069;-49
2024/04/07 08:10:59;;;;;;;2.95;1.00;;;;;;;16.26;60.58;101114.34;5022127;28;20049;-57
2024/04/07 08:13:25;;;;;;;4.28;1.50;;;;;;;16.71;60.39;101121.09;5020874;28;20160;-49
2024/04/07 08:15:51;;;;;;;4.65;1.40;;;;;;;16.50;61.23;101118.91;5025266;28;20408;-51
2024/04/07 08:18:17;;;;;;;4.57;1.45;;;;;;;16.98;60.08;101123.47;5022333;28;20535;-46
2024/04/07 08:20:43;;;;;;;3.92;1.20;;;;;;;16.97;58.44;101116.41;5023534;28;20445;-50
2024/04/07 08:23:09;;;;;;;2.33;1.20;;;;;;;16.68;60.38;101125.81;5029292;28;20405;-49
2024/04/07 08:25:35;;;;;;;3.55;1.05;;;;;;;17.13;59.35;101124.44;5041935;28;20044;-54
2024/04/07 08:28:04;;;;;;;3.42;1.15;;;;;;;17.56;58.15;101135.81;5041950;28;20059;-49
2024/04/07 08:30:30;;;;;;;3.72;1.20;;;;;;;16.90;58.35;101140.47;5039811;28;20053;-53
2024/04/07 08:32:56;;;;;;;3.60;1.55;;;;;;;16.72;59.78;101129.00;5043294;28;20045;-47
2024/04/07 08:35:22;;;;;;;7.43;1.35;;;;;;;17.08;58.24;101139.44;5018623;28;20063;-48
2024/04/07 08:37:49;;;;;;;3.78;0.93;;;;;;;17.11;58.36;101123.78;5042455;28;20051;-52
2024/04/07 08:40:15;;;;;;;4.20;1.50;;;;;;;17.87;56.75;101131.31;5038760;28;20052;-48
2024/04/07 08:42:42;;;;;;;3.97;0.88;;;;;;;18.14;56.44;101132.69;5040267;28;20110;-54
2024/04/07 08:45:09;;;;;;;4.03;1.08;;;;;;;17.94;55.93;101129.59;5045549;28;20049;-53
2024/04/07 08:47:36;;;;;;;3.47;0.88;;;;;;;17.86;56.04;101128.81;5029458;28;20048;-53
2024/04/07 08:50:03;;;;;;;2.22;0.80;;;;;;;17.50;56.73;101150.81;5021829;28;20053;-53
2024/04/07 08:52:30;;;;;;;3.75;0.93;;;;;;;17.33;56.15;101139.22;5041926;28;20049;-54
2024/04/07 08:54:57;;;;;;;5.20;1.05;;;;;;;17.64;55.28;101147.41;5043331;28;20055;-51
2024/04/07 08:57:23;;;;;;;5.57;1.10;;;;;;;17.06;55.53;101158.47;5027564;28;20042;-55
2024/04/07 08:59:51;;;;;;;5.20;0.75;;;;;;;17.02;53.78;101167.91;5034418;28;20114;-51
2024/04/07 09:02:18;;;;;;;3.80;1.17;;;;;;;17.41;54.22;101158.06;5029332;28;20052;-49
2024/04/07 09:04:44;;;;;;;5.93;0.80;;;;;;;17.62;52.52;101160.19;5029460;28;21459;-47
2024/04/07 09:07:12;;;;;;;2.55;0.70;;;;;;;17.35;53.21;101157.91;5026855;28;20060;-53
2024/04/07 09:09:39;;;;;;;2.15;0.70;;;;;;;17.75;53.69;101170.47;5018556;28;20051;-54
2024/04/07 09:12:10;;;;;;;6.45;0.80;;;;;;;17.90;52.87;101168.72;5044132;28;20055;-53
2024/04/07 09:14:38;;;;;;;4.00;1.00;;;;;;;18.50;51.50;101160.81;5026098;28;20053;-53
2024/04/07 09:17:08;;;;;;;5.32;0.68;;;;;;;17.79;52.83;101171.81;5037306;28;20579;-53
2024/04/07 09:19:35;;;;;;;3.80;1.10;;;;;;;17.75;51.73;101160.53;5016791;28;20388;-55
2024/04/07 09:22:05;;;;;;;4.63;0.80;;;;;;;17.68;51.98;101186.47;5025704;28;20074;-57
2024/04/07 09:24:32;;;;;;;4.07;1.05;;;;;;;17.49;50.62;101162.59;5022264;28;20138;-55
2024/04/07 09:26:59;;;;;;;3.67;0.90;;;;;;;18.04;50.90;101164.44;5014718;28;20522;-54
2024/04/07 09:29:32;;;;;;;3.30;0.68;;;;;;;18.49;49.60;101172.63;5014924;28;20053;-55
2024/04/07 09:31:58;;;;;;;2.85;1.08;;;;;;;17.75;50.21;101163.22;5017606;28;20435;-51
2024/04/07 09:34:25;;;;;;;6.57;1.17;;;;;;;17.62;50.73;101170.13;5009388;28;20063;-53
2024/04/07 09:36:53;;;;;;;2.63;0.73;;;;;;;18.11;49.38;101168.97;5026337;28;20518;-49
2024/04/07 09:39:18;;;;;;;3.75;1.15;;;;;;;17.65;51.04;101177.88;4987681;28;20057;-54
2024/04/07 09:41:47;;;;;;;5.07;1.05;;;;;;;17.22;50.86;101190.78;5004727;28;20049;-49
2024/04/07 09:44:19;;;;;;;3.33;0.80;;;;;;;17.39;51.52;101192.41;5019663;28;20053;-56
2024/04/07 09:46:45;;;;;;;4.70;1.45;;;;;;;17.31;50.29;101203.19;5008858;28;20273;-53
2024/04/07 09:49:11;;;;;;;2.15;0.90;;;;;;;17.05;51.59;101199.84;5015832;28;20045;-50
2024/04/07 09:51:43;;;;;;;5.72;1.10;;;;;;;17.69;50.87;101190.84;5009716;28;20049;-53
2024/04/07 09:54:19;;;;;;;3.53;1.20;;;;;;;17.82;50.02;101193.00;5016165;28;20385;-53
2024/04/07 09:56:46;;;;;;;4.85;0.93;;;;;;;17.66;51.22;101195.72;4999372;28;20474;-52
2024/04/07 09:59:13;;;;;;;3.10;1.10;;;;;;;18.21;49.71;101204.63;4995045;28;20067;-48
2024/04/07 10:01:39;;;;;;;4.68;0.90;;;;;;;18.21;49.87;101201.09;5016458;28;20056;-56
2024/04/07 10:04:06;;;;;;;3.92;0.90;;;;;;;17.69;50.29;101212.41;5012732;28;20053;-51
2024/04/07 10:06:33;;;;;;;4.93;1.02;;;;;;;17.76;50.29;101215.28;5006772;28;20541;-52
2024/04/07 10:09:01;;;;;;;3.63;0.90;;;;;;;18.58;48.06;101206.66;5015119;28;20053;-52
2024/04/07 10:11:27;;;;;;;6.43;1.00;;;;;;;18.42;48.52;101195.91;5005202;28;20045;-53
2024/04/07 10:13:53;;;;;;;5.28;0.70;;;;;;;18.63;47.53;101192.63;5016098;28;20045;-56
2024/04/07 10:16:19;;;;;;;4.03;0.95;;;;;;;18.51;47.22;101188.66;5005261;28;20045;-53
2024/04/07 10:18:46;;;;;;;3.88;1.33;;;;;;;17.80;48.26;101192.34;4993038;28;20041;-53
2024/04/07 10:21:12;;;;;;;5.57;1.10;;;;;;;18.66;47.70;101184.16;4989662;28;20075;-52
2024/04/07 10:23:39;;;;;;;4.70;1.17;;;;;;;18.29;47.16;101175.94;5029149;28;20583;-51
2024/04/07 10:26:06;;;;;;;3.53;1.08;;;;;;;18.17;47.09;101186.28;5044131;28;20051;-49
2024/04/07 10:28:49;;;;;;;4.53;0.80;;;;;;;18.54;45.69;101170.22;5011550;28;20534;-50
2024/04/07 10:31:24;;;;;;;5.00;0.98;;;;;;;18.94;44.73;101174.50;5018730;28;20062;-53
2024/04/07 10:33:51;;;;;;;3.13;0.90;;;;;;;18.70;44.73;101179.22;5005776;28;20055;-52
2024/04/07 10:36:20;;;;;;;2.85;1.02;;;;;;;18.94;44.09;101177.19;5036453;28;20671;-50
2024/04/07 10:38:57;;;;;;;3.75;1.00;;;;;;;18.80;42.70;101158.25;5034807;28;20526;-52
2024/04/07 10:41:31;;;;;;;3.92;1.20;;;;;;;18.47;43.67;101166.56;5023848;28;20055;-52
2024/04/07 10:43:58;;;;;;;3.58;1.10;;;;;;;18.29;44.36;101173.25;5042369;28;20547;-50
2024/04/07 10:46:25;;;;;;;5.57;0.80;;;;;;;19.15;42.95;101172.97;5037308;28;20045;-50
2024/04/07 10:48:52;;;;;;;4.18;0.70;;;;;;;18.84;41.33;101173.91;5039009;28;20071;-50
2024/04/07 10:51:19;;;;;;;5.15;0.95;;;;;;;18.78;41.79;101166.53;5036208;28;20084;-51
2024/04/07 10:54:04;;;;;;;1.95;0.73;;;;;;;19.36;41.44;101173.13;5033305;28;20392;-53
2024/04/07 10:56:31;;;;;;;3.72;1.20;;;;;;;19.13;40.97;101189.34;5041440;28;20053;-53
2024/04/07 10:58:57;;;;;;;3.30;0.85;;;;;;;19.35;40.16;101171.44;5042942;28;20095;-51
2024/04/07 11:01:24;;;;;;;3.25;1.00;;;;;;;18.79;40.97;101180.88;5042047;28;20053;-52
2024/04/07 11:03:51;;;;;;;3.78;0.90;;;;;;;18.42;41.88;101173.50;5030963;28;20045;-55
2024/04/07 11:06:20;;;;;;;2.15;0.77;;;;;;;18.86;41.05;101171.88;5030290;28;20061;-54
2024/04/07 11:08:46;;;;;;;4.13;1.20;;;;;;;19.40;41.18;101177.13;5043107;28;20055;-52
2024/04/07 11:11:12;;;;;;;3.22;0.85;;;;;;;18.82;41.47;101180.47;5041455;28;20053;-53
2024/04/07 11:13:39;;;;;;;5.72;0.95;;;;;;;18.82;42.12;101180.47;5037543;28;20045;-53
2024/04/07 11:16:07;;;;;;;3.50;1.13;;;;;;;19.55;39.92;101161.75;5042797;28;20492;-56
2024/04/07 11:18:33;;;;;;;2.33;0.90;;;;;;;19.57;39.98;101173.22;5030146;28;20053;-53
2024/04/07 11:20:59;;;;;;;2.65;0.75;;;;;;;18.94;38.91;101165.56;5003987;28;20056;-49
2024/04/07 11:23:26;;;;;;;5.45;0.68;;;;;;;19.28;37.76;101184.00;5007792;28;20620;-53
2024/04/07 11:25:52;;;;;;;2.45;0.80;;;;;;;19.18;38.59;101180.69;5039596;28;20045;-52
2024/04/07 11:28:19;;;;;;;3.72;1.02;;;;;;;19.66;38.29;101199.13;5040359;28;20053;-49